Time;durP1;ratioP1;P1;durP2;ratioP2;P2;SDS_P1;SDS_P2;PMS_P1;PMS_P2;Temp;Humidity;BMP_temperature;BMP_pressure;BME280_temperature;BME280_humidity;BME280_pressure;Samples;Min_cycle;Max_cycle;Signal;HPM_P1;HPM_P2
2021/04/15 00:00:46;;;;;;;12.88;8.70;;;7.50;76.40;;;;;;5048306;28;20025;-81
2021/04/15 00:03:18;;;;;;;12.02;8.02;;;7.50;76.60;;;;;;5048095;28;20083;-81
2021/04/15 00:05:45;;;;;;;12.60;8.70;;;7.40;76.70;;;;;;5048128;28;20021;-82
2021/04/15 00:08:13;;;;;;;16.25;9.10;;;7.40;76.80;;;;;;5049611;28;20108;-83
2021/04/15 00:10:42;;;;;;;16.55;10.43;;;7.40;77.10;;;;;;5031951;28;20388;-83
2021/04/15 00:13:18;;;;;;;12.40;8.27;;;7.30;77.50;;;;;;5048187;28;20402;-83
2021/04/15 00:15:44;;;;;;;13.05;8.77;;;7.30;77.70;;;;;;5049461;28;20032;-84
2021/04/15 00:18:09;;;;;;;16.25;9.95;;;7.20;77.60;;;;;;5031566;28;20396;-83
2021/04/15 00:20:35;;;;;;;14.52;10.10;;;7.20;77.90;;;;;;5047929;28;20392;-84
2021/04/15 00:23:01;;;;;;;12.98;9.00;;;7.20;78.20;;;;;;5048514;28;20040;-83
2021/04/15 00:25:27;;;;;;;16.48;9.60;;;7.20;78.40;;;;;;5048125;28;20032;-84
2021/04/15 00:27:53;;;;;;;15.68;10.13;;;7.20;78.60;;;;;;5048131;28;20025;-85
2021/04/15 00:30:20;;;;;;;12.05;9.15;;;7.10;79.00;;;;;;5031656;28;20029;-85
2021/04/15 00:32:46;;;;;;;13.95;10.20;;;7.10;79.10;;;;;;5047954;28;20426;-85
2021/04/15 00:35:13;;;;;;;16.15;10.20;;;7.10;79.30;;;;;;5047985;28;20388;-84
2021/04/15 00:37:39;;;;;;;15.25;9.95;;;7.10;79.50;;;;;;5031370;28;20032;-84
2021/04/15 00:40:06;;;;;;;12.30;7.68;;;7.10;79.70;;;;;;5047720;28;20035;-85
2021/04/15 00:42:32;;;;;;;12.63;8.75;;;7.10;79.70;;;;;;5047569;28;20029;-85
2021/04/15 00:45:10;;;;;;;9.75;7.78;;;7.00;79.60;;;;;;5031235;28;20032;-83
2021/04/15 00:47:38;;;;;;;10.60;7.90;;;7.00;79.70;;;;;;5047730;28;20022;-84
2021/04/15 00:50:11;;;;;;;15.43;9.68;;;6.90;79.70;;;;;;5031272;28;20502;-83
2021/04/15 00:52:46;;;;;;;11.10;8.02;;;6.80;80.00;;;;;;5047641;28;20025;-83
2021/04/15 00:55:17;;;;;;;12.32;8.65;;;6.80;80.30;;;;;;5047861;28;20036;-83
2021/04/15 00:57:48;;;;;;;11.93;8.75;;;6.80;80.30;;;;;;5047438;28;20033;-83
2021/04/15 01:00:15;;;;;;;12.98;9.32;;;6.80;80.30;;;;;;5047353;28;20502;-85
2021/04/15 01:02:41;;;;;;;11.90;9.00;;;6.70;80.30;;;;;;5047252;28;20025;-85
2021/04/15 01:05:17;;;;;;;14.27;9.68;;;6.70;80.40;;;;;;5047469;28;20094;-83
2021/04/15 01:07:42;;;;;;;15.57;10.23;;;6.70;80.70;;;;;;5047598;28;20432;-82
2021/04/15 01:10:09;;;;;;;13.95;9.77;;;6.70;80.60;;;;;;5030413;28;20112;-82
2021/04/15 01:13:17;;;;;;;11.07;9.43;;;6.70;80.80;;;;;;5014142;28;20025;-82
2021/04/15 01:16:20;;;;;;;11.90;8.60;;;6.70;80.90;;;;;;5048175;28;20037;-83
2021/04/15 01:18:55;;;;;;;10.80;7.88;;;6.70;80.80;;;;;;5046548;28;20128;-82
2021/04/15 01:21:36;;;;;;;15.80;8.30;;;6.70;80.70;;;;;;5046835;28;20498;-82
2021/04/15 01:24:18;;;;;;;14.30;8.27;;;6.60;80.80;;;;;;5047136;28;20052;-83
2021/04/15 01:27:28;;;;;;;13.43;9.15;;;6.60;80.90;;;;;;5046915;28;20059;-84
2021/04/15 01:30:26;;;;;;;16.52;10.45;;;6.50;81.00;;;;;;5043765;28;20039;-84
2021/04/15 01:32:58;;;;;;;16.33;12.45;;;6.50;81.00;;;;;;5047853;28;20119;-85
2021/04/15 01:35:33;;;;;;;16.90;11.82;;;6.50;81.10;;;;;;5048989;28;20064;-84
2021/04/15 01:38:13;;;;;;;25.58;15.02;;;6.50;81.60;;;;;;5056428;28;20107;-83
2021/04/15 01:40:55;;;;;;;20.30;12.75;;;6.50;82.20;;;;;;5055326;28;20021;-84
2021/04/15 01:43:56;;;;;;;22.48;14.30;;;6.60;82.50;;;;;;5055508;28;20070;-83
2021/04/15 01:46:27;;;;;;;23.40;13.35;;;6.60;82.60;;;;;;5037972;28;20040;-84
2021/04/15 01:48:55;;;;;;;16.83;10.63;;;6.50;82.60;;;;;;5046798;28;20025;-84
2021/04/15 01:51:24;;;;;;;16.55;11.40;;;6.50;82.70;;;;;;5046520;28;20029;-84
2021/04/15 01:53:59;;;;;;;16.07;11.00;;;6.50;83.20;;;;;;5046774;28;20114;-84
2021/04/15 01:56:35;;;;;;;15.25;9.90;;;6.50;83.00;;;;;;5046795;28;20025;-84
2021/04/15 01:59:20;;;;;;;13.85;10.95;;;6.50;83.20;;;;;;5046625;28;20048;-84
2021/04/15 02:01:52;;;;;;;11.07;7.80;;;6.40;83.30;;;;;;5047884;28;20028;-84
2021/04/15 02:04:27;;;;;;;11.63;9.15;;;6.40;83.30;;;;;;5046603;28;20548;-83
2021/04/15 02:06:59;;;;;;;16.02;10.43;;;6.40;83.50;;;;;;5046931;28;20112;-85
2021/04/15 02:09:26;;;;;;;20.80;11.50;;;6.30;83.50;;;;;;5047668;28;20039;-83
2021/04/15 02:11:59;;;;;;;15.43;10.50;;;6.30;83.70;;;;;;5046596;28;20460;-85
2021/04/15 02:14:29;;;;;;;16.58;9.88;;;6.20;83.90;;;;;;5046755;28;20391;-86
2021/04/15 02:16:58;;;;;;;15.15;9.18;;;6.30;83.90;;;;;;5046707;28;20075;-83
2021/04/15 02:19:36;;;;;;;14.57;10.30;;;6.20;83.60;;;;;;5047753;28;20464;-85
2021/04/15 02:22:11;;;;;;;18.90;10.95;;;6.20;83.80;;;;;;5047786;28;20029;-84
2021/04/15 02:24:57;;;;;;;14.30;10.10;;;6.20;83.80;;;;;;5047815;28;20029;-84
2021/04/15 02:27:48;;;;;;;18.15;11.23;;;6.20;83.80;;;;;;5046339;28;20029;-87
2021/04/15 02:30:22;;;;;;;16.55;9.48;;;6.20;83.80;;;;;;5046293;28;20531;-84
2021/04/15 02:32:58;;;;;;;11.80;9.27;;;6.10;83.60;;;;;;5047864;28;20025;-84
2021/04/15 02:35:40;;;;;;;13.07;9.13;;;6.10;83.50;;;;;;5046377;28;20079;-84
2021/04/15 02:38:06;;;;;;;14.50;10.77;;;6.10;83.70;;;;;;5046495;28;20025;-84
2021/04/15 02:40:56;;;;;;;12.50;9.25;;;6.00;83.60;;;;;;5013353;28;20037;-85
2021/04/15 02:43:34;;;;;;;13.23;8.95;;;6.00;83.80;;;;;;5048475;28;20126;-84
2021/04/15 02:46:06;;;;;;;11.48;8.60;;;6.00;83.70;;;;;;5050266;28;20052;-84
2021/04/15 02:48:37;;;;;;;13.85;9.15;;;5.90;83.70;;;;;;5051174;28;20029;-85
2021/04/15 02:51:06;;;;;;;11.82;9.93;;;5.90;83.70;;;;;;5051286;28;20041;-86
2021/04/15 02:53:58;;;;;;;;;;;5.90;83.60;;;;;;5050413;28;20063;-83
2021/04/15 02:56:54;;;;;;;11.50;9.60;;;5.80;83.10;;;;;;5041520;28;19904;-85
2021/04/15 02:59:31;;;;;;;13.82;9.35;;;5.80;82.90;;;;;;5049722;28;20025;-85
2021/04/15 03:02:18;;;;;;;14.02;9.75;;;5.70;83.10;;;;;;5051265;28;20056;-84
2021/04/15 03:04:51;;;;;;;13.45;9.23;;;5.70;83.30;;;;;;5049812;28;20210;-84
2021/04/15 03:07:19;;;;;;;14.73;10.45;;;5.70;83.40;;;;;;5049681;28;20491;-83
2021/04/15 03:09:46;;;;;;;13.88;9.77;;;5.60;83.50;;;;;;5049708;28;20472;-85
2021/04/15 03:12:39;;;;;;;15.48;10.25;;;5.60;83.60;;;;;;5049660;28;20033;-84
2021/04/15 03:15:11;;;;;;;13.77;10.82;;;5.60;83.90;;;;;;5049552;28;20024;-84
2021/04/15 03:17:42;;;;;;;19.88;11.57;;;5.60;83.80;;;;;;5050714;28;20032;-85
2021/04/15 03:20:16;;;;;;;16.67;11.85;;;5.60;84.00;;;;;;5049769;28;20048;-84
2021/04/15 03:22:56;;;;;;;13.60;10.70;;;5.60;84.30;;;;;;5049556;28;20065;-85
2021/04/15 03:25:22;;;;;;;12.75;10.00;;;5.60;84.30;;;;;;5050583;28;20108;-85
2021/04/15 03:28:07;;;;;;;16.73;11.60;;;5.60;84.10;;;;;;5016436;28;20129;-85
2021/04/15 03:30:44;;;;;;;13.50;9.60;;;5.60;84.30;;;;;;5050621;28;20032;-83
2021/04/15 03:33:31;;;;;;;16.63;11.18;;;5.60;84.10;;;;;;5050434;28;20559;-84
2021/04/15 03:36:17;;;;;;;12.45;10.15;;;5.50;84.00;;;;;;5048943;28;20051;-84
2021/04/15 03:38:56;;;;;;;17.20;11.40;;;5.50;84.10;;;;;;5048711;28;20043;-84
2021/04/15 03:41:38;;;;;;;13.38;10.77;;;5.40;84.10;;;;;;5032581;28;20045;-84
2021/04/15 03:44:32;;;;;;;16.70;11.52;;;5.40;84.20;;;;;;5049160;28;20036;-84
2021/04/15 03:47:02;;;;;;;12.55;10.02;;;5.40;84.30;;;;;;5049070;28;20028;-83
2021/04/15 03:49:44;;;;;;;13.40;10.15;;;5.40;84.20;;;;;;5048762;28;20021;-82
2021/04/15 03:52:25;;;;;;;13.13;10.00;;;5.40;84.30;;;;;;5048748;28;20039;-84
2021/04/15 03:55:26;;;;;;;14.25;10.20;;;5.40;84.50;;;;;;5047740;28;20042;-84
2021/04/15 03:57:57;;;;;;;13.52;9.10;;;5.30;84.60;;;;;;5044661;28;20061;-84
2021/04/15 04:00:29;;;;;;;12.50;10.00;;;5.30;84.50;;;;;;5049983;28;20021;-83
2021/04/15 04:03:08;;;;;;;14.30;10.02;;;5.30;84.70;;;;;;5048740;28;20488;-84
2021/04/15 04:05:46;;;;;;;15.27;10.10;;;5.30;85.30;;;;;;5049934;28;20372;-85
2021/04/15 04:08:19;;;;;;;17.00;12.05;;;5.30;84.80;;;;;;5048529;28;20052;-85
2021/04/15 04:10:47;;;;;;;74.22;13.93;;;5.30;84.80;;;;;;5048349;28;20025;-84
2021/04/15 04:13:24;;;;;;;49.30;14.13;;;5.30;84.80;;;;;;5048355;28;20052;-82
2021/04/15 04:16:04;;;;;;;59.80;14.15;;;5.30;85.00;;;;;;5048539;28;20025;-84
2021/04/15 04:18:45;;;;;;;74.43;14.43;;;5.30;85.00;;;;;;5048352;28;20028;-84
2021/04/15 04:21:52;;;;;;;171.10;18.08;;;5.20;85.00;;;;;;5048350;28;20020;-83
2021/04/15 04:24:27;;;;;;;36.83;13.02;;;5.20;85.20;;;;;;5049219;28;20055;-83
2021/04/15 04:27:06;;;;;;;26.83;13.93;;;5.20;85.30;;;;;;5047959;28;20090;-83
2021/04/15 04:30:06;;;;;;;28.58;15.77;;;5.10;85.40;;;;;;5048130;28;20075;-83
2021/04/15 04:32:32;;;;;;;20.65;13.77;;;5.10;85.70;;;;;;5048002;28;20500;-83
2021/04/15 04:35:00;;;;;;;20.85;15.43;;;5.10;85.50;;;;;;5031522;28;20033;-84
2021/04/15 04:37:53;;;;;;;25.05;14.75;;;5.10;85.80;;;;;;5047910;28;20037;-84
2021/04/15 04:40:37;;;;;;;19.25;13.98;;;5.10;86.20;;;;;;5048900;28;20041;-84
2021/04/15 04:43:10;;;;;;;18.42;13.73;;;5.00;86.20;;;;;;5047934;28;20032;-83
2021/04/15 04:45:36;;;;;;;19.67;12.75;;;5.00;86.10;;;;;;5048013;28;20021;-83
2021/04/15 04:48:07;;;;;;;15.90;11.77;;;4.90;86.30;;;;;;5047845;28;20127;-84
2021/04/15 04:50:41;;;;;;;17.27;11.82;;;4.90;86.50;;;;;;5049062;28;20057;-83
2021/04/15 04:53:11;;;;;;;17.00;11.88;;;4.90;86.50;;;;;;5049069;28;20074;-84
2021/04/15 04:55:59;;;;;;;21.25;13.40;;;4.90;86.40;;;;;;5047655;28;20057;-84
2021/04/15 04:58:24;;;;;;;19.52;11.55;;;4.80;86.60;;;;;;5048825;28;20079;-84
2021/04/15 05:00:54;;;;;;;17.17;12.07;;;4.80;86.60;;;;;;5031314;28;20028;-85
2021/04/15 05:03:29;;;;;;;14.35;10.75;;;4.80;86.60;;;;;;5047785;28;20563;-84
2021/04/15 05:06:05;;;;;;;13.48;10.55;;;4.80;86.60;;;;;;5054350;28;20029;-82
2021/04/15 05:08:58;;;;;;;13.98;10.55;;;4.80;86.60;;;;;;5054747;28;20032;-83
2021/04/15 05:11:31;;;;;;;16.80;11.43;;;4.80;86.50;;;;;;5053580;28;20021;-84
2021/04/15 05:13:58;;;;;;;14.30;10.20;;;4.80;86.40;;;;;;5049860;28;20029;-84
2021/04/15 05:16:28;;;;;;;13.98;10.63;;;4.80;86.20;;;;;;5047163;28;20391;-85
2021/04/15 05:18:54;;;;;;;14.60;9.88;;;4.70;86.30;;;;;;5048390;28;20032;-84
2021/04/15 05:21:24;;;;;;;13.32;10.23;;;4.70;86.30;;;;;;5030650;28;20123;-83
2021/04/15 05:24:07;;;;;;;13.68;9.45;;;4.70;86.30;;;;;;5047215;28;20035;-83
2021/04/15 05:26:36;;;;;;;12.60;9.25;;;4.70;86.30;;;;;;5046879;28;20024;-83
2021/04/15 05:29:05;;;;;;;12.00;8.82;;;4.60;86.30;;;;;;5046729;28;20041;-83
2021/04/15 05:31:33;;;;;;;15.15;10.63;;;4.60;86.60;;;;;;5046550;28;20038;-83
2021/04/15 05:34:15;;;;;;;14.00;9.32;;;4.60;86.80;;;;;;5046879;28;20078;-84
2021/04/15 05:36:41;;;;;;;14.80;9.30;;;4.60;87.20;;;;;;5046527;28;20052;-84
2021/04/15 05:39:10;;;;;;;21.80;12.32;;;4.60;87.00;;;;;;5046492;28;20032;-84
2021/04/15 05:41:46;;;;;;;13.43;9.65;;;4.60;87.00;;;;;;5048098;28;20021;-83
2021/04/15 05:44:21;;;;;;;14.63;10.68;;;4.70;87.00;;;;;;5046897;28;20086;-86
2021/04/15 05:46:50;;;;;;;14.02;10.93;;;4.70;87.10;;;;;;5047179;28;20025;-84
2021/04/15 05:49:21;;;;;;;11.10;8.02;;;4.70;87.30;;;;;;5046669;28;20494;-83
2021/04/15 05:52:08;;;;;;;19.02;11.70;;;4.80;87.50;;;;;;5046632;28;20037;-84
2021/04/15 05:54:35;;;;;;;17.60;11.73;;;4.80;87.90;;;;;;5048055;28;20422;-84
2021/04/15 05:57:16;;;;;;;19.35;12.63;;;4.90;88.00;;;;;;5046614;28;20468;-84
2021/04/15 06:00:00;;;;;;;14.93;10.43;;;5.00;88.50;;;;;;5046485;28;20037;-84
2021/04/15 06:03:05;;;;;;;23.02;10.90;;;5.10;88.40;;;;;;5046462;28;20047;-83
2021/04/15 06:05:38;;;;;;;15.57;12.07;;;5.20;88.80;;;;;;5047179;28;20037;-74
2021/04/15 06:08:07;;;;;;;19.77;11.07;;;5.20;88.60;;;;;;5047556;28;20029;-84
2021/04/15 06:10:35;;;;;;;21.52;11.75;;;5.30;88.60;;;;;;5046805;28;20040;-84
2021/04/15 06:13:22;;;;;;;13.20;9.98;;;5.30;88.60;;;;;;5046535;28;20033;-83
2021/04/15 06:15:53;;;;;;;15.73;10.82;;;5.40;88.80;;;;;;5046261;28;20111;-85
2021/04/15 06:18:43;;;;;;;18.00;10.95;;;5.40;88.70;;;;;;5048890;28;20025;-83
2021/04/15 06:21:18;;;;;;;;;;;5.50;89.00;;;;;;5052487;28;20353;-80
2021/04/15 06:23:49;;;;;;;15.23;10.18;;;5.50;88.40;;;;;;5050581;28;19911;-84
2021/04/15 06:26:33;;;;;;;19.80;10.48;;;5.50;88.00;;;;;;5050448;28;20055;-85
2021/04/15 06:29:04;;;;;;;15.38;10.38;;;5.60;88.60;;;;;;5051919;28;20021;-84
2021/04/15 06:31:41;;;;;;;17.92;10.23;;;5.70;88.80;;;;;;5051631;28;20025;-83
2021/04/15 06:34:09;;;;;;;19.67;12.00;;;5.80;89.20;;;;;;5050776;28;20017;-84
2021/04/15 06:37:00;;;;;;;24.52;12.27;;;5.90;89.20;;;;;;5034447;28;20056;-84
2021/04/15 06:39:49;;;;;;;21.48;11.20;;;5.90;89.70;;;;;;5050761;28;20036;-83
2021/04/15 06:42:26;;;;;;;20.52;12.52;;;6.00;89.80;;;;;;5049917;28;20033;-84
2021/04/15 06:45:26;;;;;;;21.38;12.25;;;6.20;89.90;;;;;;5051081;28;20099;-83
2021/04/15 06:48:10;;;;;;;18.38;12.23;;;6.30;90.10;;;;;;5049618;28;20427;-84
2021/04/15 06:51:06;;;;;;;16.70;12.00;;;6.40;90.10;;;;;;5051155;28;20025;-83
2021/04/15 06:53:36;;;;;;;19.45;12.73;;;6.50;90.00;;;;;;5050173;28;20090;-84
2021/04/15 06:56:23;;;;;;;25.45;12.85;;;6.60;89.80;;;;;;5051048;28;20491;-83
2021/04/15 06:59:07;;;;;;;21.33;13.18;;;6.60;89.90;;;;;;5050090;28;20025;-84
2021/04/15 07:01:58;;;;;;;20.10;13.02;;;6.70;89.90;;;;;;5049401;28;20029;-84
2021/04/15 07:04:35;;;;;;;19.05;12.25;;;6.80;90.00;;;;;;5051205;28;20043;-84
2021/04/15 07:07:09;;;;;;;16.98;11.13;;;7.20;91.20;;;;;;5049782;28;20040;-83
2021/04/15 07:10:00;;;;;;;16.90;10.57;;;8.30;91.30;;;;;;5049404;28;20025;-85
2021/04/15 07:12:41;;;;;;;16.10;10.55;;;9.30;89.60;;;;;;5049603;28;20503;-83
2021/04/15 07:16:03;;;;;;;12.63;9.35;;;9.80;86.70;;;;;;5049381;28;20399;-85
2021/04/15 07:19:23;;;;;;;18.65;9.68;;;10.10;84.90;;;;;;5031834;28;20029;-84
2021/04/15 07:22:16;;;;;;;15.93;10.13;;;9.90;83.40;;;;;;4970063;28;20034;-84
2021/04/15 07:25:03;;;;;;;13.25;9.40;;;9.70;83.50;;;;;;5050842;28;20111;-84
2021/04/15 07:27:50;;;;;;;14.43;9.45;;;9.60;84.20;;;;;;5049240;28;20025;-84
2021/04/15 07:30:20;;;;;;;17.65;10.15;;;9.60;86.00;;;;;;5048404;28;20029;-82
2021/04/15 07:33:02;;;;;;;16.33;9.75;;;10.10;89.90;;;;;;5049221;28;20112;-83
2021/04/15 07:36:00;;;;;;;13.18;8.00;;;11.20;90.00;;;;;;5050185;28;20395;-82
2021/04/15 07:38:52;;;;;;;12.82;8.50;;;12.10;86.40;;;;;;5049290;28;20156;-84
2021/04/15 07:41:45;;;;;;;14.57;8.55;;;12.90;83.90;;;;;;5050662;28;20107;-86
2021/04/15 07:44:26;;;;;;;12.48;8.48;;;13.80;83.30;;;;;;5048060;28;20059;-83
2021/04/15 07:47:18;;;;;;;11.73;8.35;;;15.00;81.80;;;;;;5048240;28;20052;-85
2021/04/15 07:50:27;;;;;;;12.30;8.35;;;16.10;78.20;;;;;;5047735;28;20028;-83
2021/04/15 07:53:05;;;;;;;12.57;8.13;;;16.60;74.70;;;;;;5046914;28;20503;-84
2021/04/15 07:55:36;;;;;;;16.55;8.85;;;17.40;75.20;;;;;;5047003;28;20515;-81
2021/04/15 07:58:11;;;;;;;15.23;9.57;;;18.40;73.90;;;;;;5047289;28;20036;-83
2021/04/15 08:00:39;;;;;;;12.82;8.23;;;19.40;70.80;;;;;;5048732;28;20025;-83
2021/04/15 08:03:39;;;;;;;11.13;8.02;;;20.40;68.60;;;;;;5049270;28;20087;-84
2021/04/15 08:06:25;;;;;;;13.70;9.30;;;21.40;65.70;;;;;;5049616;28;20445;-84
2021/04/15 08:09:14;;;;;;;13.63;9.52;;;22.10;63.60;;;;;;5048085;28;20435;-81
2021/04/15 08:12:00;;;;;;;14.68;9.73;;;22.80;61.50;;;;;;5048241;28;20036;-87
2021/04/15 08:14:58;;;;;;;14.68;8.88;;;23.30;59.90;;;;;;5047557;28;20025;-77
2021/04/15 08:17:29;;;;;;;16.98;9.15;;;23.70;58.20;;;;;;5048489;28;20088;-83
2021/04/15 08:20:42;;;;;;;14.48;9.45;;;24.10;57.20;;;;;;5048150;28;20028;-84
2021/04/15 08:23:36;;;;;;;11.45;9.60;;;24.50;56.20;;;;;;5029687;28;20056;-85
2021/04/15 08:26:18;;;;;;;11.38;9.02;;;24.90;55.40;;;;;;5029503;28;20075;-86
2021/04/15 08:29:08;;;;;;;20.00;10.75;;;25.40;54.40;;;;;;5048896;28;20119;-86
2021/04/15 08:32:02;;;;;;;13.18;10.40;;;25.80;53.30;;;;;;5048678;28;20108;-74
2021/04/15 08:35:11;;;;;;;14.50;9.45;;;25.70;52.50;;;;;;5048102;28;20495;-85
2021/04/15 08:38:04;;;;;;;18.60;11.75;;;25.70;52.50;;;;;;5047193;28;20052;-85
2021/04/15 08:40:53;;;;;;;13.57;9.57;;;26.10;51.90;;;;;;5047338;28;20044;-87
2021/04/15 08:43:40;;;;;;;16.63;10.88;;;26.20;51.40;;;;;;5047498;28;20040;-85
2021/04/15 08:46:19;;;;;;;13.88;9.60;;;26.50;51.20;;;;;;5047707;28;20025;-86
2021/04/15 08:49:02;;;;;;;18.53;11.47;;;27.10;50.30;;;;;;5047423;28;20021;-83
2021/04/15 08:51:34;;;;;;;17.00;10.90;;;27.60;49.40;;;;;;5048590;28;20283;-85
2021/04/15 08:54:22;;;;;;;14.10;11.50;;;28.10;48.90;;;;;;5047719;28;20464;-84
2021/04/15 08:57:10;;;;;;;13.13;10.38;;;28.40;47.40;;;;;;5046868;28;20024;-85
2021/04/15 08:59:51;;;;;;;15.40;11.32;;;28.60;47.30;;;;;;5048328;28;20483;-85
2021/04/15 09:02:39;;;;;;;13.57;11.45;;;28.80;46.50;;;;;;5047161;28;20111;-80
2021/04/15 09:05:13;;;;;;;14.88;11.55;;;29.00;46.10;;;;;;5047977;28;20159;-87
2021/04/15 09:07:59;;;;;;;13.60;11.60;;;29.30;45.50;;;;;;5047092;28;20044;-86
2021/04/15 09:11:03;;;;;;;12.10;9.98;;;29.50;44.70;;;;;;5046482;28;20039;-85
2021/04/15 09:13:57;;;;;;;9.75;8.75;;;29.60;44.50;;;;;;5046380;28;20588;-86
2021/04/15 09:16:52;;;;;;;16.77;10.63;;;29.40;43.40;;;;;;5046488;28;20101;-86
2021/04/15 09:19:33;;;;;;;16.52;11.85;;;29.40;44.00;;;;;;5048188;28;20474;-85
2021/04/15 09:22:19;;;;;;;17.50;11.35;;;29.50;42.90;;;;;;5046684;28;20025;-84
2021/04/15 09:25:05;;;;;;;13.30;11.30;;;29.70;42.60;;;;;;5047738;28;20051;-86
2021/04/15 09:28:02;;;;;;;12.80;10.40;;;30.00;42.50;;;;;;5045913;28;20025;-89
2021/04/15 09:30:51;;;;;;;14.63;11.38;;;30.60;42.40;;;;;;5046588;28;20088;-88
2021/04/15 09:33:54;;;;;;;19.90;10.90;;;31.10;42.00;;;;;;5045858;28;20025;-86
2021/04/15 09:36:30;;;;;;;15.20;13.23;;;31.50;41.20;;;;;;5046045;28;20079;-85
2021/04/15 09:39:34;;;;;;;13.93;11.35;;;31.60;40.60;;;;;;5047044;28;20141;-84
2021/04/15 09:42:33;;;;;;;15.20;10.68;;;31.60;40.70;;;;;;5045663;28;20079;-85
2021/04/15 09:45:20;;;;;;;12.70;10.18;;;32.00;40.40;;;;;;5046541;28;20025;-87
2021/04/15 09:48:00;;;;;;;13.60;9.95;;;32.10;40.00;;;;;;5046456;28;20079;-87
2021/04/15 09:50:34;;;;;;;14.80;10.35;;;32.20;39.40;;;;;;5046211;28;20013;-84
2021/04/15 09:53:21;;;;;;;16.42;12.80;;;32.30;39.30;;;;;;5045498;28;20421;-85
2021/04/15 09:56:05;;;;;;;11.68;9.80;;;32.60;39.10;;;;;;5046526;28;20025;-87
2021/04/15 09:58:43;;;;;;;13.55;10.07;;;32.60;39.40;;;;;;5047370;28;20071;-86
2021/04/15 10:01:21;;;;;;;13.55;9.98;;;32.80;39.40;;;;;;5045632;28;20275;-84
2021/04/15 10:04:06;;;;;;;13.40;10.55;;;32.90;38.70;;;;;;5045871;28;20031;-84
2021/04/15 10:06:36;;;;;;;13.65;9.75;;;32.90;38.50;;;;;;5046355;28;20367;-85
2021/04/15 10:09:23;;;;;;;12.45;8.77;;;33.00;38.50;;;;;;5047495;28;20028;-85
2021/04/15 10:12:31;;;;;;;11.93;9.45;;;33.00;37.40;;;;;;5045448;28;20033;-85
2021/04/15 10:15:24;;;;;;;11.95;8.77;;;32.90;37.50;;;;;;5045375;28;20111;-84
2021/04/15 10:18:02;;;;;;;7.93;6.72;;;33.10;37.40;;;;;;5046389;28;20040;-83
2021/04/15 10:20:52;;;;;;;7.35;6.50;;;33.30;36.80;;;;;;5046744;28;20043;-85
2021/04/15 10:23:35;;;;;;;10.38;8.13;;;33.20;36.30;;;;;;5045336;28;20312;-86
2021/04/15 10:26:22;;;;;;;10.50;8.00;;;32.00;35.60;;;;;;5045401;28;20022;-85
2021/04/15 10:29:17;;;;;;;11.57;7.55;;;30.70;36.00;;;;;;5044828;28;20056;-83
2021/04/15 10:32:05;;;;;;;9.95;7.78;;;30.40;36.80;;;;;;5045542;28;20116;-85
2021/04/15 10:34:49;;;;;;;17.15;10.10;;;30.70;36.70;;;;;;5045512;28;20032;-85
2021/04/15 10:37:32;;;;;;;12.40;8.68;;;29.90;36.80;;;;;;5045184;28;20037;-84
2021/04/15 10:40:16;;;;;;;13.57;9.73;;;28.50;37.40;;;;;;5046211;28;20476;-84
2021/04/15 10:43:07;;;;;;;13.13;8.65;;;27.50;38.90;;;;;;5046962;28;20224;-83
2021/04/15 10:46:01;;;;;;;17.23;8.82;;;27.30;39.70;;;;;;5034905;28;20515;-83
2021/04/15 10:48:36;;;;;;;24.15;9.07;;;27.80;40.30;;;;;;5040754;28;20391;-86
2021/04/15 10:51:06;;;;;;;9.73;7.38;;;28.70;40.00;;;;;;5045891;28;20033;-84
2021/04/15 10:53:52;;;;;;;14.60;6.95;;;29.10;39.90;;;;;;5046211;28;20055;-85
2021/04/15 10:56:24;;;;;;;11.63;8.52;;;29.40;39.90;;;;;;5046304;28;20365;-86
2021/04/15 10:58:59;;;;;;;10.82;8.32;;;29.80;39.60;;;;;;5046766;28;20025;-87
2021/04/15 11:01:32;;;;;;;10.30;7.28;;;30.10;39.40;;;;;;5046617;28;20035;-85
2021/04/15 11:04:07;;;;;;;16.63;8.25;;;30.40;39.50;;;;;;5046333;28;20028;-88
2021/04/15 11:06:33;;;;;;;10.30;6.93;;;29.70;38.20;;;;;;5049761;28;20492;-87
2021/04/15 11:09:17;;;;;;;11.77;8.55;;;28.20;38.00;;;;;;5050033;28;20021;-85
2021/04/15 11:11:56;;;;;;;15.15;9.82;;;26.50;39.00;;;;;;5051359;28;20025;-85
2021/04/15 11:14:27;;;;;;;10.90;7.93;;;25.10;39.80;;;;;;5051282;28;20450;-87
2021/04/15 11:16:55;;;;;;;11.77;8.23;;;23.90;40.90;;;;;;5050437;28;20476;-84
2021/04/15 11:19:30;;;;;;;14.18;8.80;;;22.80;41.80;;;;;;5050592;28;20048;-82
2021/04/15 11:21:57;;;;;;;12.07;8.15;;;22.00;42.90;;;;;;5049954;28;20561;-88
2021/04/15 11:24:33;;;;;;;14.32;8.10;;;21.30;44.10;;;;;;5032899;28;20032;-85
2021/04/15 11:27:01;;;;;;;12.80;7.45;;;20.80;43.80;;;;;;5048965;28;20025;-86
2021/04/15 11:29:45;;;;;;;12.07;8.15;;;20.30;44.30;;;;;;5049283;28;20017;-85
2021/04/15 11:32:34;;;;;;;16.77;9.18;;;20.10;45.00;;;;;;5049806;28;20055;-86
2021/04/15 11:35:20;;;;;;;12.55;8.02;;;19.80;45.20;;;;;;5049413;28;20074;-85
2021/04/15 11:38:04;;;;;;;13.65;9.27;;;19.50;45.60;;;;;;5049944;28;20475;-85
2021/04/15 11:40:41;;;;;;;14.23;9.30;;;19.30;45.70;;;;;;5049934;28;20774;-87
2021/04/15 11:43:18;;;;;;;15.02;7.78;;;19.30;45.90;;;;;;5050268;28;20032;-88
2021/04/15 11:45:46;;;;;;;14.82;7.97;;;19.20;46.30;;;;;;5048158;28;20112;-84
2021/04/15 11:48:18;;;;;;;13.50;9.18;;;19.40;46.40;;;;;;5049046;28;20052;-86
2021/04/15 11:50:46;;;;;;;11.05;7.38;;;19.70;46.90;;;;;;5049132;28;20017;-83
2021/04/15 11:53:50;;;;;;;9.98;7.80;;;19.90;46.10;;;;;;5050159;28;20027;-86
2021/04/15 11:56:24;;;;;;;11.68;7.35;;;20.20;46.10;;;;;;5050378;28;20017;-87
2021/04/15 11:58:51;;;;;;;11.75;7.22;;;20.80;45.90;;;;;;5048550;28;20044;-85
2021/04/15 12:01:26;;;;;;;18.33;6.72;;;21.40;45.50;;;;;;5031557;28;20021;-85
2021/04/15 12:04:01;;;;;;;11.63;6.63;;;22.10;44.80;;;;;;5047942;28;20032;-87
2021/04/15 12:06:40;;;;;;;12.65;6.03;;;22.60;44.00;;;;;;5048648;28;20036;-87
2021/04/15 12:09:11;;;;;;;11.93;8.05;;;22.80;43.30;;;;;;5050534;28;20028;-86
2021/04/15 12:12:06;;;;;;;13.18;7.72;;;22.80;42.70;;;;;;5049752;28;20060;-87
2021/04/15 12:14:34;;;;;;;11.52;8.13;;;22.50;42.70;;;;;;5047003;28;20044;-82
2021/04/15 12:17:27;;;;;;;10.40;7.05;;;22.30;42.90;;;;;;5047034;28;20036;-86
2021/04/15 12:20:05;;;;;;;11.70;6.78;;;22.00;42.90;;;;;;5050578;28;20359;-86
2021/04/15 12:22:52;;;;;;;11.85;6.50;;;21.80;43.10;;;;;;5048458;28;20388;-86
2021/04/15 12:25:36;;;;;;;8.63;5.97;;;21.70;42.70;;;;;;5049351;28;20379;-85
2021/04/15 12:28:50;;;;;;;13.93;7.05;;;21.30;42.80;;;;;;5049089;28;20086;-85
2021/04/15 12:31:19;;;;;;;11.77;6.45;;;20.90;43.00;;;;;;5030669;28;20120;-85
2021/04/15 12:34:12;;;;;;;11.95;6.10;;;20.60;43.10;;;;;;5045645;28;20107;-85
2021/04/15 12:36:45;;;;;;;10.38;6.10;;;20.20;43.60;;;;;;5049176;28;20440;-83
2021/04/15 12:39:27;;;;;;;8.73;5.15;;;20.10;43.70;;;;;;5049292;28;20021;-85
2021/04/15 12:41:55;;;;;;;13.25;6.30;;;20.00;44.00;;;;;;5047727;28;20025;-86
2021/04/15 12:44:26;;;;;;;9.85;5.75;;;20.00;44.00;;;;;;5031294;28;20102;-86
2021/04/15 12:46:55;;;;;;;13.82;7.70;;;19.90;44.40;;;;;;5048049;28;20113;-86
2021/04/15 12:49:24;;;;;;;10.50;5.97;;;19.90;44.40;;;;;;5048360;28;20056;-86
2021/04/15 12:51:58;;;;;;;4.07;2.90;;;19.90;44.20;;;;;;5049007;28;20030;-84
2021/04/15 12:54:34;;;;;;;5.85;3.40;;;19.80;43.60;;;;;;5047700;28;20029;-86
2021/04/15 12:57:09;;;;;;;4.28;2.60;;;19.60;43.20;;;;;;5048051;28;20028;-87
2021/04/15 12:59:37;;;;;;;4.88;2.50;;;19.40;43.20;;;;;;5047041;28;20116;-84
2021/04/15 13:02:09;;;;;;;6.30;2.90;;;19.40;43.40;;;;;;5048484;28;20099;-86
2021/04/15 13:04:34;;;;;;;5.13;2.38;;;19.50;43.50;;;;;;5047655;28;20125;-85
2021/04/15 13:07:03;;;;;;;4.63;2.60;;;19.60;43.30;;;;;;5048912;28;20508;-88
2021/04/15 13:09:39;;;;;;;3.67;2.30;;;19.80;43.30;;;;;;5047495;28;20100;-85
2021/04/15 13:12:20;;;;;;;4.65;2.60;;;20.10;43.00;;;;;;5047267;28;20029;-84
2021/04/15 13:14:55;;;;;;;4.65;2.50;;;20.80;43.20;;;;;;5048112;28;20122;-85
2021/04/15 13:17:36;;;;;;;9.32;2.92;;;21.50;43.10;;;;;;5046672;28;20126;-85
2021/04/15 13:20:07;;;;;;;5.43;2.67;;;22.20;42.60;;;;;;5048495;28;20025;-85
2021/04/15 13:22:38;;;;;;;4.30;2.53;;;22.50;41.80;;;;;;5048719;28;20029;-83
2021/04/15 13:25:06;;;;;;;4.95;2.40;;;22.90;41.40;;;;;;5046941;28;20044;-86
2021/04/15 13:27:35;;;;;;;4.65;2.20;;;23.50;40.90;;;;;;5048508;28;20113;-82
2021/04/15 13:30:19;;;;;;;3.45;2.20;;;23.50;39.80;;;;;;5047293;28;20099;-84
2021/04/15 13:33:10;;;;;;;5.72;2.15;;;23.00;39.60;;;;;;5049094;28;20028;-86
2021/04/15 13:35:59;;;;;;;4.82;2.20;;;22.60;40.10;;;;;;5048642;28;20392;-84
2021/04/15 13:41:05;;;;;;;4.05;2.90;;;22.40;40.50;;;;;;5047760;28;20121;-81
2021/04/15 13:43:58;;;;;;;7.80;2.88;;;22.30;40.60;;;;;;5046317;28;20116;-80
2021/04/15 13:46:24;;;;;;;5.10;2.63;;;22.20;40.40;;;;;;5047637;28;20013;-82